Time;durP1;ratioP1;P1;durP2;ratioP2;P2;SDS_P1;SDS_P2;PMS_P1;PMS_P2;Temp;Humidity;BMP_temperature;BMP_pressure;BME280_temperature;BME280_humidity;BME280_pressure;Samples;Min_cycle;Max_cycle;Signal;HPM_P1;HPM_P2
2021/08/12 00:01:55;;;;;;;110.90;46.03;;;17.40;99.90;;;;;;6195536;23;20455;-70
2021/08/12 00:04:24;;;;;;;127.77;48.27;;;17.30;99.90;;;;;;6158904;23;20416;-70
2021/08/12 00:06:52;;;;;;;111.85;42.78;;;17.30;99.90;;;;;;6195313;23;20296;-69
2021/08/12 00:09:20;;;;;;;137.30;47.83;;;17.30;99.90;;;;;;6195627;23;20164;-69
2021/08/12 00:11:48;;;;;;;96.20;46.93;;;17.20;99.90;;;;;;6185050;23;20432;-69
2021/08/12 00:14:18;;;;;;;107.43;47.10;;;17.20;99.90;;;;;;6158898;23;20914;-69
2021/08/12 00:16:46;;;;;;;97.30;44.17;;;17.10;99.90;;;;;;6185573;23;20431;-70
2021/08/12 00:19:14;;;;;;;74.87;39.67;;;17.20;99.90;;;;;;6195196;23;20378;-70
2021/08/12 00:21:43;;;;;;;99.83;47.87;;;17.10;99.90;;;;;;6159144;23;20444;-70
2021/08/12 00:24:11;;;;;;;92.60;40.40;;;17.10;99.90;;;;;;6160805;23;20466;-69
2021/08/12 00:26:40;;;;;;;96.37;45.13;;;17.10;99.90;;;;;;6160891;23;20506;-69
2021/08/12 00:29:09;;;;;;;104.23;51.83;;;17.00;99.90;;;;;;6187518;23;20412;-70
2021/08/12 00:31:38;;;;;;;107.50;46.47;;;17.00;99.90;;;;;;6160910;23;20474;-69
2021/08/12 00:34:07;;;;;;;104.63;43.17;;;17.00;99.90;;;;;;6160649;23;20419;-69
2021/08/12 00:36:35;;;;;;;99.67;43.20;;;17.00;99.90;;;;;;6160881;23;20435;-69
2021/08/12 00:39:06;;;;;;;92.47;39.73;;;16.90;99.90;;;;;;6162009;23;20404;-69
2021/08/12 00:41:36;;;;;;;10.47;9.57;;;16.90;99.90;;;;;;6156118;23;20569;-69
2021/08/12 00:44:08;;;;;;;86.63;39.17;;;17.00;99.90;;;;;;6158124;23;20911;-69
2021/08/12 00:46:38;;;;;;;93.73;41.27;;;16.90;99.90;;;;;;6159395;23;20424;-69
2021/08/12 00:49:10;;;;;;;120.23;44.83;;;16.90;99.90;;;;;;6158905;23;20424;-69
2021/08/12 00:51:42;;;;;;;84.63;46.07;;;16.90;99.90;;;;;;6159860;23;20441;-69
2021/08/12 00:54:12;;;;;;;105.10;43.77;;;16.80;99.90;;;;;;6159262;23;20413;-69
2021/08/12 00:56:40;;;;;;;112.73;50.60;;;16.80;99.90;;;;;;6156712;23;20467;-69
2021/08/12 00:59:10;;;;;;;156.77;46.83;;;16.80;99.90;;;;;;6155823;23;20421;-69
2021/08/12 01:01:40;;;;;;;119.23;44.80;;;16.70;99.90;;;;;;6155758;23;20932;-69
2021/08/12 01:04:10;;;;;;;56.17;29.48;;;16.70;99.90;;;;;;6155945;23;20449;-69
2021/08/12 01:06:52;;;;;;;112.50;41.07;;;16.70;99.90;;;;;;6156253;23;20204;-69
2021/08/12 01:09:33;;;;;;;35.25;20.98;;;16.70;99.90;;;;;;6155522;23;20471;-69
2021/08/12 01:12:09;;;;;;;107.53;48.67;;;16.70;99.90;;;;;;6155655;23;20257;-69
2021/08/12 01:14:47;;;;;;;102.73;43.80;;;16.60;99.90;;;;;;6155604;23;20416;-69
2021/08/12 01:17:24;;;;;;;85.80;44.27;;;16.60;99.90;;;;;;6155557;23;20809;-69
2021/08/12 01:20:21;;;;;;;65.77;36.50;;;16.50;99.90;;;;;;6155458;23;20462;-69
2021/08/12 01:22:51;;;;;;;117.70;49.33;;;16.50;99.90;;;;;;6155808;23;20485;-69
2021/08/12 01:25:25;;;;;;;103.53;45.13;;;16.50;99.90;;;;;;6155486;23;20391;-69
2021/08/12 01:27:56;;;;;;;103.83;47.03;;;16.50;99.90;;;;;;6155532;23;20410;-69
2021/08/12 01:30:31;;;;;;;133.37;47.90;;;16.50;99.90;;;;;;6155490;23;20746;-69
2021/08/12 01:33:10;;;;;;;138.77;47.00;;;16.40;99.90;;;;;;6154928;23;20440;-69
2021/08/12 01:35:42;;;;;;;110.77;50.73;;;16.40;99.90;;;;;;6155487;23;20483;-69
2021/08/12 01:38:16;;;;;;;72.03;34.95;;;16.40;99.90;;;;;;6156002;23;20403;-69
2021/08/12 01:40:46;;;;;;;99.70;40.77;;;16.40;99.90;;;;;;6158200;23;20252;-70
2021/08/12 01:43:19;;;;;;;122.87;43.13;;;16.40;99.90;;;;;;6160232;23;20468;-70
2021/08/12 01:45:54;;;;;;;89.57;49.30;;;16.30;99.90;;;;;;6160231;23;20407;-70
2021/08/12 01:48:24;;;;;;;100.77;47.70;;;16.30;99.90;;;;;;6187624;23;20385;-70
2021/08/12 01:50:56;;;;;;;131.83;49.80;;;16.30;99.90;;;;;;6160227;23;20908;-70
2021/08/12 01:53:26;;;;;;;105.87;49.60;;;16.20;99.90;;;;;;6160190;23;20425;-70
2021/08/12 01:55:56;;;;;;;108.03;44.87;;;16.30;99.90;;;;;;6196610;23;20369;-70
2021/08/12 01:58:28;;;;;;;118.77;49.53;;;16.20;99.90;;;;;;6160214;23;20441;-69
2021/08/12 02:00:57;;;;;;;97.83;45.23;;;16.20;99.90;;;;;;6160193;23;20407;-69
2021/08/12 02:03:26;;;;;;;108.17;47.53;;;16.20;99.90;;;;;;6160090;23;20522;-69
2021/08/12 02:05:58;;;;;;;102.77;45.57;;;16.20;99.90;;;;;;6160108;23;20715;-69
2021/08/12 02:08:26;;;;;;;10.73;9.80;;;16.20;99.90;;;;;;6159641;23;20393;-69
2021/08/12 02:10:56;;;;;;;85.63;44.33;;;16.20;99.90;;;;;;6160372;23;20614;-69
2021/08/12 02:13:28;;;;;;;93.57;42.70;;;16.20;99.90;;;;;;6160297;23;20421;-70
2021/08/12 02:15:57;;;;;;;103.23;48.27;;;16.20;99.90;;;;;;6196486;23;20460;-70
2021/08/12 02:18:26;;;;;;;92.20;42.77;;;16.20;99.90;;;;;;6160256;23;20865;-70
2021/08/12 02:21:04;;;;;;;109.47;42.07;;;16.20;99.90;;;;;;6160063;23;20420;-70
2021/08/12 02:23:37;;;;;;;87.77;40.87;;;16.20;99.90;;;;;;6160016;23;20486;-69
2021/08/12 02:26:10;;;;;;;87.83;44.20;;;16.10;99.90;;;;;;6160045;23;20399;-70
2021/08/12 02:28:42;;;;;;;103.57;44.90;;;16.20;99.90;;;;;;6159761;23;20729;-70
2021/08/12 02:31:12;;;;;;;137.57;54.93;;;16.20;99.90;;;;;;6160818;23;20408;-69
2021/08/12 02:33:44;;;;;;;97.07;42.40;;;16.10;99.90;;;;;;6160227;23;20506;-69
2021/08/12 02:36:16;;;;;;;85.07;44.53;;;16.10;99.90;;;;;;6160626;23;20411;-70
2021/08/12 02:38:46;;;;;;;112.10;47.77;;;16.10;99.90;;;;;;6196264;23;20409;-69
2021/08/12 02:41:18;;;;;;;135.50;46.43;;;16.10;99.90;;;;;;6154690;23;20528;-69
2021/08/12 02:43:49;;;;;;;11.40;10.40;;;16.10;99.90;;;;;;6153338;23;20399;-69
2021/08/12 02:46:24;;;;;;;99.57;44.40;;;16.20;99.90;;;;;;6154801;23;20165;-70
2021/08/12 02:48:55;;;;;;;112.67;43.13;;;16.10;99.90;;;;;;6154779;23;20417;-69
2021/08/12 02:51:26;;;;;;;116.23;39.60;;;16.10;99.90;;;;;;6154689;23;20395;-69
2021/08/12 02:53:56;;;;;;;141.00;46.40;;;16.10;99.90;;;;;;6154793;23;20772;-69
2021/08/12 02:56:25;;;;;;;132.13;49.57;;;16.10;99.90;;;;;;6154438;23;20682;-69
2021/08/12 02:58:56;;;;;;;78.20;47.67;;;16.00;99.90;;;;;;6166153;23;20408;-70
2021/08/12 03:01:27;;;;;;;120.87;45.37;;;16.00;99.90;;;;;;6155129;23;20473;-69
2021/08/12 03:03:59;;;;;;;111.53;45.40;;;16.00;99.90;;;;;;6155299;23;20476;-70
2021/08/12 03:06:30;;;;;;;106.20;46.07;;;16.00;99.90;;;;;;6154670;23;20420;-69
2021/08/12 03:08:59;;;;;;;101.47;46.90;;;16.00;99.90;;;;;;6154660;23;20409;-69
2021/08/12 03:11:29;;;;;;;11.20;10.13;;;16.00;99.90;;;;;;6153816;23;20438;-70
2021/08/12 03:13:59;;;;;;;73.53;42.60;;;16.00;99.90;;;;;;6154598;23;20173;-69
2021/08/12 03:16:29;;;;;;;12.10;11.00;;;16.00;99.90;;;;;;6153898;23;20424;-69
2021/08/12 03:18:59;;;;;;;92.00;40.27;;;16.00;99.90;;;;;;6154699;23;20165;-69
2021/08/12 03:21:30;;;;;;;98.93;44.23;;;16.00;99.90;;;;;;6154608;23;20380;-69
2021/08/12 03:24:01;;;;;;;103.80;44.40;;;15.90;99.90;;;;;;6154761;23;20467;-69
2021/08/12 03:26:30;;;;;;;105.97;43.23;;;15.90;99.90;;;;;;6154987;23;20474;-69
2021/08/12 03:28:58;;;;;;;99.30;42.33;;;15.90;99.90;;;;;;6154615;23;20423;-69
2021/08/12 03:31:26;;;;;;;116.73;46.87;;;15.90;99.90;;;;;;6154420;23;20451;-69
2021/08/12 03:33:54;;;;;;;99.53;45.37;;;15.80;99.90;;;;;;6154444;23;20420;-69
2021/08/12 03:36:23;;;;;;;103.63;47.87;;;15.80;99.90;;;;;;6154799;23;20475;-69
2021/08/12 03:38:53;;;;;;;144.90;49.03;;;15.80;99.90;;;;;;6154286;23;20439;-69
2021/08/12 03:41:22;;;;;;;104.67;43.27;;;15.80;99.90;;;;;;6154582;23;20498;-71
2021/08/12 03:43:50;;;;;;;109.60;46.40;;;15.80;99.90;;;;;;6154292;23;20881;-69
2021/08/12 03:46:18;;;;;;;12.60;11.50;;;15.80;99.90;;;;;;6153249;23;20400;-69
2021/08/12 03:48:47;;;;;;;77.73;40.13;;;15.80;99.90;;;;;;6165816;23;20705;-69
2021/08/12 03:51:15;;;;;;;93.80;42.77;;;15.80;99.90;;;;;;6154372;23;20502;-70
2021/08/12 03:53:43;;;;;;;114.57;44.60;;;15.80;99.90;;;;;;6154342;23;20395;-70
2021/08/12 03:56:13;;;;;;;121.67;52.67;;;15.80;99.90;;;;;;6154038;23;20946;-70
2021/08/12 03:58:41;;;;;;;96.20;46.73;;;15.70;99.90;;;;;;6165908;23;20403;-70
2021/08/12 04:01:10;;;;;;;103.27;49.27;;;15.70;99.90;;;;;;6165626;23;20428;-70
2021/08/12 04:03:38;;;;;;;133.60;52.03;;;15.70;99.90;;;;;;6165785;23;20391;-70
2021/08/12 04:06:07;;;;;;;111.73;48.57;;;15.70;99.90;;;;;;6154206;23;20440;-70
2021/08/12 04:08:36;;;;;;;106.40;48.93;;;15.70;99.90;;;;;;6154266;23;20468;-70
2021/08/12 04:11:07;;;;;;;112.07;45.57;;;15.60;99.90;;;;;;6153952;23;20375;-70
2021/08/12 04:13:37;;;;;;;107.90;53.33;;;15.60;99.90;;;;;;6155056;23;20858;-70
2021/08/12 04:16:06;;;;;;;12.73;11.53;;;15.60;99.90;;;;;;6153556;23;20454;-70
2021/08/12 04:18:35;;;;;;;92.83;42.63;;;15.60;99.90;;;;;;6154074;23;20436;-70
2021/08/12 04:21:03;;;;;;;12.93;11.82;;;15.60;99.90;;;;;;6153494;23;20454;-69
2021/08/12 04:23:33;;;;;;;107.57;41.03;;;15.60;99.90;;;;;;6154104;23;20213;-68
2021/08/12 04:26:01;;;;;;;110.00;41.70;;;15.60;99.90;;;;;;6154150;23;20438;-68
2021/08/12 04:28:49;;;;;;;86.40;38.27;;;15.60;99.90;;;;;;6154782;23;20424;-69
2021/08/12 04:31:18;;;;;;;110.20;46.40;;;15.60;99.90;;;;;;6153954;23;20415;-69
2021/08/12 04:33:46;;;;;;;93.33;42.57;;;15.60;99.90;;;;;;6154023;23;20723;-69
2021/08/12 04:36:15;;;;;;;105.67;48.17;;;15.60;99.90;;;;;;6165535;23;20480;-68
2021/08/12 04:38:44;;;;;;;85.37;44.47;;;15.60;99.90;;;;;;6153942;23;20515;-68
2021/08/12 04:41:12;;;;;;;92.07;49.27;;;15.60;99.90;;;;;;6153867;23;20417;-69
2021/08/12 04:43:41;;;;;;;82.73;48.77;;;15.60;99.90;;;;;;6165252;23;20404;-69
2021/08/12 04:46:11;;;;;;;101.97;46.37;;;15.60;99.90;;;;;;6153892;23;20403;-69
2021/08/12 04:48:39;;;;;;;75.83;47.33;;;15.60;99.90;;;;;;6153951;23;20416;-69
2021/08/12 04:51:08;;;;;;;41.40;26.25;;;15.60;99.90;;;;;;6153506;23;20458;-69
2021/08/12 04:53:36;;;;;;;65.97;43.60;;;15.60;99.90;;;;;;6165371;23;20185;-68
2021/08/12 04:56:05;;;;;;;41.83;27.70;;;15.70;99.90;;;;;;6153560;23;20412;-69
2021/08/12 04:58:33;;;;;;;83.53;42.53;;;15.70;99.90;;;;;;6153878;23;20236;-68
2021/08/12 05:01:02;;;;;;;88.67;45.50;;;15.70;99.90;;;;;;6153994;23;20458;-69
2021/08/12 05:03:32;;;;;;;130.13;56.87;;;15.70;99.90;;;;;;6153847;23;20491;-69
2021/08/12 05:06:04;;;;;;;92.37;41.60;;;15.70;99.90;;;;;;6153841;23;20700;-69
2021/08/12 05:08:33;;;;;;;88.47;46.70;;;15.70;99.90;;;;;;6155388;23;20483;-68
2021/08/12 05:11:06;;;;;;;109.93;52.97;;;15.80;99.90;;;;;;6155847;23;20391;-69
2021/08/12 05:13:35;;;;;;;103.40;47.40;;;15.80;99.90;;;;;;6167483;23;20423;-69
2021/08/12 05:16:03;;;;;;;134.30;49.93;;;15.80;99.90;;;;;;6155588;23;20416;-69
2021/08/12 05:18:34;;;;;;;122.00;52.33;;;15.80;99.90;;;;;;6155543;23;20411;-69
2021/08/12 05:21:03;;;;;;;88.63;41.97;;;15.90;99.90;;;;;;6155721;23;20383;-69
2021/08/12 05:23:35;;;;;;;123.73;52.30;;;15.90;99.90;;;;;;6155534;23;20444;-69
2021/08/12 05:26:04;;;;;;;91.43;33.90;;;15.90;99.90;;;;;;6155395;23;20407;-68
2021/08/12 05:28:33;;;;;;;103.70;52.73;;;15.90;99.90;;;;;;6155677;23;20172;-68
2021/08/12 05:31:03;;;;;;;79.63;37.67;;;16.00;99.90;;;;;;6155393;23;20429;-68
2021/08/12 05:33:36;;;;;;;101.23;49.00;;;16.00;99.90;;;;;;6155451;23;20666;-68
2021/08/12 05:36:05;;;;;;;104.30;49.73;;;16.00;99.90;;;;;;6155671;23;20392;-68
2021/08/12 05:38:33;;;;;;;99.57;46.70;;;16.10;99.90;;;;;;6155431;23;20446;-68
2021/08/12 05:41:03;;;;;;;116.73;50.63;;;16.10;99.90;;;;;;6155802;23;20402;-69
2021/08/12 05:43:32;;;;;;;143.13;54.53;;;16.10;99.90;;;;;;6155377;23;20499;-68
2021/08/12 05:46:03;;;;;;;144.67;60.23;;;16.20;99.90;;;;;;6155514;23;20434;-68
2021/08/12 05:48:31;;;;;;;134.53;56.27;;;16.20;99.90;;;;;;6155396;23;20499;-68
2021/08/12 05:51:01;;;;;;;113.37;55.03;;;16.30;99.90;;;;;;6155789;23;20449;-68
2021/08/12 05:53:30;;;;;;;123.80;52.43;;;16.40;99.90;;;;;;6155381;23;20464;-68
2021/08/12 05:56:02;;;;;;;139.07;56.40;;;16.40;99.90;;;;;;6157135;23;20379;-68
2021/08/12 05:58:33;;;;;;;128.97;50.97;;;16.50;99.90;;;;;;6155278;23;20441;-69
2021/08/12 06:01:01;;;;;;;110.25;40.83;;;16.50;99.90;;;;;;6155568;23;20407;-68
2021/08/12 06:03:30;;;;;;;125.27;56.67;;;16.50;99.90;;;;;;6155276;23;20196;-68
2021/08/12 06:05:59;;;;;;;119.53;50.35;;;16.60;99.90;;;;;;6155655;23;20404;-67
2021/08/12 06:08:31;;;;;;;131.30;57.57;;;16.60;99.90;;;;;;6156321;23;20496;-68
2021/08/12 06:10:59;;;;;;;132.60;54.60;;;16.70;99.90;;;;;;6156912;23;20412;-68
2021/08/12 06:13:28;;;;;;;122.20;63.63;;;16.70;99.90;;;;;;6155194;23;20822;-69
2021/08/12 06:15:58;;;;;;;130.17;58.57;;;16.80;99.90;;;;;;6156382;23;20790;-68
2021/08/12 06:18:28;;;;;;;135.27;57.80;;;16.80;99.90;;;;;;6155517;23;20404;-70
2021/08/12 06:20:57;;;;;;;144.33;59.27;;;16.90;99.90;;;;;;6154947;23;20432;-68
2021/08/12 06:23:26;;;;;;;160.27;59.27;;;17.00;99.90;;;;;;6154915;23;20989;-68
2021/08/12 06:25:56;;;;;;;131.73;56.67;;;17.00;99.90;;;;;;6154984;23;20413;-69
2021/08/12 06:28:25;;;;;;;154.87;56.90;;;17.20;99.90;;;;;;6156394;23;20744;-68
2021/08/12 06:30:55;;;;;;;106.80;57.07;;;17.30;99.90;;;;;;6155401;23;20793;-68
2021/08/12 06:33:23;;;;;;;128.40;56.50;;;17.50;99.90;;;;;;6154798;23;20436;-68
2021/08/12 06:35:52;;;;;;;140.33;62.37;;;17.80;99.90;;;;;;6155006;23;20423;-68
2021/08/12 06:38:21;;;;;;;15.82;14.32;;;17.90;99.90;;;;;;6154926;23;20551;-68
2021/08/12 06:40:50;;;;;;;151.53;60.40;;;18.10;99.90;;;;;;6159642;23;20177;-69
2021/08/12 06:43:20;;;;;;;137.10;61.33;;;18.30;99.90;;;;;;6159793;23;20936;-68
2021/08/12 06:45:53;;;;;;;123.10;60.70;;;18.60;99.90;;;;;;6160017;23;20442;-68
2021/08/12 06:48:23;;;;;;;154.03;75.03;;;18.90;99.90;;;;;;6196883;23;20381;-68
2021/08/12 06:50:55;;;;;;;158.43;65.37;;;19.10;99.90;;;;;;6160238;23;20508;-68
2021/08/12 06:53:23;;;;;;;168.77;70.60;;;19.40;99.90;;;;;;6159673;23;20450;-68
2021/08/12 06:55:53;;;;;;;160.53;65.53;;;19.50;99.90;;;;;;6159739;23;20434;-68
2021/08/12 06:58:22;;;;;;;212.10;73.27;;;19.80;99.90;;;;;;6159534;23;20443;-68
2021/08/12 07:00:51;;;;;;;168.80;72.17;;;19.90;99.90;;;;;;6159712;23;20416;-67
2021/08/12 07:03:21;;;;;;;78.05;37.65;;;20.10;99.90;;;;;;6159495;23;20419;-68
2021/08/12 07:05:50;;;;;;;177.17;77.03;;;20.20;99.90;;;;;;6159635;23;20172;-71
2021/08/12 07:08:18;;;;;;;77.30;35.60;;;20.20;99.90;;;;;;6159536;23;20758;-70
2021/08/12 07:10:47;;;;;;;177.70;72.20;;;20.20;99.90;;;;;;6159688;23;20169;-70
2021/08/12 07:13:15;;;;;;;202.93;88.90;;;20.20;99.90;;;;;;6159590;23;20931;-70
2021/08/12 07:15:46;;;;;;;157.87;77.17;;;20.40;99.90;;;;;;6159709;23;20412;-70
2021/08/12 07:18:15;;;;;;;186.93;78.63;;;20.60;99.90;;;;;;6159550;23;20412;-70
2021/08/12 07:20:45;;;;;;;173.43;85.40;;;20.90;99.90;;;;;;6196285;23;20432;-70
2021/08/12 07:23:13;;;;;;;202.70;80.33;;;21.10;99.90;;;;;;6159502;23;20459;-70
2021/08/12 07:25:42;;;;;;;202.43;91.07;;;21.30;99.90;;;;;;6159503;23;20430;-71
2021/08/12 07:28:13;;;;;;;173.77;81.67;;;21.40;99.90;;;;;;6159467;23;20789;-70
2021/08/12 07:30:42;;;;;;;187.00;89.07;;;21.50;99.90;;;;;;6159357;23;20412;-71
2021/08/12 07:33:11;;;;;;;208.40;89.50;;;21.50;99.90;;;;;;6159129;23;20943;-70
2021/08/12 07:35:39;;;;;;;182.03;83.20;;;21.50;99.90;;;;;;6159408;23;20424;-70
2021/08/12 07:38:08;;;;;;;95.05;48.90;;;21.60;99.90;;;;;;6195658;23;20466;-70
2021/08/12 07:40:38;;;;;;;197.67;86.40;;;21.90;99.90;;;;;;6159234;23;20254;-70
2021/08/12 07:43:07;;;;;;;222.87;87.87;;;22.00;99.90;;;;;;6196420;23;20746;-70
2021/08/12 07:45:35;;;;;;;193.13;85.07;;;22.00;99.90;;;;;;6196274;23;20404;-70
2021/08/12 07:48:04;;;;;;;221.60;90.80;;;22.10;99.90;;;;;;6159828;23;20420;-71
2021/08/12 07:50:34;;;;;;;212.30;84.83;;;22.10;99.90;;;;;;6195637;23;20428;-70
2021/08/12 07:53:02;;;;;;;165.00;78.93;;;22.10;99.90;;;;;;6185486;23;20936;-70
2021/08/12 07:55:31;;;;;;;170.13;82.73;;;22.10;99.90;;;;;;6159203;23;20459;-71
2021/08/12 07:57:59;;;;;;;200.13;86.63;;;22.20;99.90;;;;;;6159405;23;20466;-70
2021/08/12 08:00:28;;;;;;;224.93;83.37;;;22.20;99.90;;;;;;6185867;23;20498;-71
2021/08/12 08:02:56;;;;;;;17.30;15.80;;;22.20;99.90;;;;;;6195445;23;20399;-71
2021/08/12 08:05:27;;;;;;;174.90;88.57;;;22.20;99.90;;;;;;6196528;23;20165;-71
2021/08/12 08:07:57;;;;;;;18.27;16.38;;;22.40;99.90;;;;;;6196089;23;20407;-71
2021/08/12 08:10:26;;;;;;;168.67;81.70;;;22.50;99.90;;;;;;6196693;23;20191;-71
2021/08/12 08:12:55;;;;;;;172.53;88.83;;;22.60;99.90;;;;;;6186834;23;20463;-71
2021/08/12 08:15:24;;;;;;;161.17;80.43;;;22.80;99.90;;;;;;6196520;23;20430;-71
2021/08/12 08:18:02;;;;;;;213.63;89.30;;;22.90;99.90;;;;;;6196574;23;20387;-71
2021/08/12 08:20:31;;;;;;;221.63;98.77;;;22.90;99.90;;;;;;6160129;23;20878;-71
2021/08/12 08:23:06;;;;;;;187.23;87.50;;;23.00;99.90;;;;;;6196146;23;20918;-70
2021/08/12 08:25:34;;;;;;;173.93;89.80;;;23.10;99.90;;;;;;6196987;23;20438;-71
2021/08/12 08:28:04;;;;;;;208.93;87.83;;;23.30;99.90;;;;;;6160121;23;20422;-71
2021/08/12 08:30:34;;;;;;;183.83;90.73;;;23.40;99.90;;;;;;6186488;23;20411;-71
2021/08/12 08:33:03;;;;;;;207.30;91.63;;;23.50;99.90;;;;;;6159941;23;20443;-71
2021/08/12 08:35:31;;;;;;;202.90;91.03;;;23.60;99.90;;;;;;6196407;23;20487;-71
2021/08/12 08:38:00;;;;;;;210.97;94.07;;;23.70;99.90;;;;;;6196256;23;20462;-71
2021/08/12 08:40:30;;;;;;;11.55;10.45;;;23.80;99.90;;;;;;6195450;23;20878;-71
2021/08/12 08:43:02;;;;;;;153.43;86.13;;;24.00;99.90;;;;;;6160911;23;20196;-71
2021/08/12 08:45:31;;;;;;;180.37;87.20;;;24.10;99.90;;;;;;6198951;23;20867;-71
2021/08/12 08:48:03;;;;;;;176.77;91.37;;;24.20;99.90;;;;;;6162043;23;20438;-71
2021/08/12 08:50:35;;;;;;;168.20;90.93;;;24.30;99.90;;;;;;6161978;23;20458;-71
2021/08/12 08:53:04;;;;;;;192.80;90.80;;;24.30;99.90;;;;;;6188355;23;20435;-71
2021/08/12 08:55:35;;;;;;;189.87;88.57;;;24.30;99.90;;;;;;6161933;23;20411;-71
2021/08/12 08:58:04;;;;;;;168.47;89.40;;;24.40;99.90;;;;;;6198495;23;20692;-71
2021/08/12 09:00:32;;;;;;;192.13;91.67;;;24.40;99.90;;;;;;6188332;23;20493;-71
2021/08/12 09:03:01;;;;;;;180.63;93.60;;;24.50;99.90;;;;;;6161644;23;20438;-71
2021/08/12 09:05:29;;;;;;;173.90;92.60;;;24.60;99.90;;;;;;6161584;23;20423;-71
2021/08/12 09:08:00;;;;;;;162.70;89.93;;;24.70;99.90;;;;;;6162279;23;20410;-71
2021/08/12 09:10:29;;;;;;;193.67;89.77;;;24.80;99.90;;;;;;6198484;23;20384;-71
2021/08/12 09:12:59;;;;;;;193.23;99.73;;;24.80;99.90;;;;;;6161306;23;20497;-71
2021/08/12 09:15:45;;;;;;;164.23;91.07;;;24.90;99.90;;;;;;6161768;23;20482;-71
2021/08/12 09:18:22;;;;;;;183.63;94.73;;;25.00;99.90;;;;;;6199166;23;20764;-71
2021/08/12 09:20:52;;;;;;;177.20;93.13;;;25.10;99.90;;;;;;6198399;23;20419;-71
2021/08/12 09:23:26;;;;;;;193.60;97.50;;;25.20;99.90;;;;;;6198191;23;20716;-71
2021/08/12 09:25:55;;;;;;;179.03;98.83;;;25.30;99.90;;;;;;6161639;23;20415;-71
2021/08/12 09:28:27;;;;;;;8.07;7.28;;;25.30;99.90;;;;;;6186632;23;20453;-71
2021/08/12 09:31:11;;;;;;;189.70;100.33;;;25.50;99.90;;;;;;6160556;23;20167;-71
2021/08/12 09:33:52;;;;;;;8.48;7.68;;;25.60;99.90;;;;;;6185847;23;20490;-71
2021/08/12 09:36:29;;;;;;;158.73;98.37;;;25.70;99.90;;;;;;6197227;23;20152;-71
2021/08/12 09:39:12;;;;;;;171.70;95.17;;;25.70;99.90;;;;;;6186757;23;20758;-71
2021/08/12 09:41:43;;;;;;;176.67;105.33;;;25.80;99.90;;;;;;6155869;23;20498;-71
2021/08/12 09:44:33;;;;;;;163.70;100.57;;;25.80;99.90;;;;;;6155540;23;20756;-71
2021/08/12 09:47:03;;;;;;;174.80;101.70;;;25.90;99.90;;;;;;6155628;23;20439;-71
2021/08/12 09:49:44;;;;;;;187.43;95.93;;;25.90;99.90;;;;;;6155508;23;20404;-71
2021/08/12 09:52:20;;;;;;;96.53;63.00;;;26.00;99.90;;;;;;6167015;23;20405;-71
2021/08/12 09:54:57;;;;;;;168.30;104.90;;;26.00;99.90;;;;;;6155165;23;20181;-71
2021/08/12 09:57:25;;;;;;;168.17;102.53;;;26.10;99.90;;;;;;6167655;23;20443;-71
2021/08/12 09:59:58;;;;;;;182.70;104.20;;;26.10;99.90;;;;;;6167227;23;20464;-72
2021/08/12 10:02:31;;;;;;;175.23;101.70;;;26.10;99.90;;;;;;6156785;23;20507;-72
2021/08/12 10:05:05;;;;;;;187.60;106.50;;;26.20;99.90;;;;;;6155549;23;20474;-72
2021/08/12 10:07:38;;;;;;;195.87;99.83;;;26.20;99.80;;;;;;6155503;23;20396;-71
2021/08/12 10:10:10;;;;;;;199.37;111.23;;;26.20;99.80;;;;;;6155387;23;20811;-71
2021/08/12 10:12:43;;;;;;;188.87;111.57;;;26.30;99.70;;;;;;6167482;23;20479;-71
2021/08/12 10:15:14;;;;;;;200.87;116.20;;;26.30;99.70;;;;;;6155248;23;20887;-72
2021/08/12 10:17:43;;;;;;;8.40;7.60;;;26.40;99.50;;;;;;6166182;23;20925;-71
2021/08/12 10:20:14;;;;;;;200.23;103.67;;;26.50;98.90;;;;;;6166427;23;20653;-71
2021/08/12 10:22:44;;;;;;;77.85;44.63;;;26.50;99.00;;;;;;6156685;23;20408;-71
2021/08/12 10:25:14;;;;;;;178.20;94.43;;;26.60;98.80;;;;;;6156833;23;20597;-71
2021/08/12 10:27:43;;;;;;;186.13;103.40;;;26.60;98.90;;;;;;6166633;23;20408;-71
2021/08/12 10:30:14;;;;;;;170.23;108.33;;;26.70;98.90;;;;;;6155227;23;20444;-71
2021/08/12 10:32:49;;;;;;;182.40;97.83;;;26.70;98.90;;;;;;6166427;23;20828;-71
2021/08/12 10:35:17;;;;;;;177.67;107.37;;;26.70;98.90;;;;;;6167140;23;20380;-72
2021/08/12 10:37:45;;;;;;;181.07;99.57;;;26.70;98.80;;;;;;6167047;23;20393;-72
2021/08/12 10:40:15;;;;;;;206.17;118.50;;;26.80;98.80;;;;;;6167028;23;20732;-72
2021/08/12 10:42:46;;;;;;;10.70;9.60;;;26.90;98.70;;;;;;6153112;23;20421;-72
2021/08/12 10:45:19;;;;;;;188.10;107.37;;;27.00;98.20;;;;;;6154923;23;20165;-71
2021/08/12 10:47:51;;;;;;;9.48;8.57;;;27.00;98.30;;;;;;6156933;23;20797;-72
2021/08/12 10:50:41;;;;;;;191.20;117.13;;;27.10;98.30;;;;;;6155636;23;20173;-72
2021/08/12 10:53:22;;;;;;;273.87;143.03;;;27.20;98.30;;;;;;6144481;23;20439;-72
2021/08/12 10:56:11;;;;;;;252.93;132.83;;;27.20;98.30;;;;;;6154822;23;20414;-71
2021/08/12 10:58:47;;;;;;;194.20;89.60;;;27.20;98.20;;;;;;6154786;23;20413;-72
2021/08/12 11:01:31;;;;;;;253.37;137.60;;;27.20;98.10;;;;;;6156583;23;20452;-72
2021/08/12 11:04:02;;;;;;;217.13;137.70;;;27.20;97.80;;;;;;6154796;23;20734;-72
2021/08/12 11:06:47;;;;;;;10.73;9.73;;;27.20;97.80;;;;;;6153196;23;20417;-72
2021/08/12 11:09:16;;;;;;;191.03;112.73;;;27.20;96.80;;;;;;6156149;23;20621;-72
2021/08/12 11:12:01;;;;;;;9.32;7.55;;;27.20;97.20;;;;;;6155523;23;20422;-72
2021/08/12 11:14:47;;;;;;;221.43;136.80;;;27.30;97.00;;;;;;6154661;23;20227;-71
2021/08/12 11:17:18;;;;;;;211.57;104.37;;;27.30;96.80;;;;;;6166049;23;20387;-72
2021/08/12 11:19:46;;;;;;;204.77;113.27;;;27.30;96.90;;;;;;6156353;23;20865;-72
2021/08/12 11:22:34;;;;;;;232.30;129.27;;;27.30;97.00;;;;;;6154625;23;20531;-72
2021/08/12 11:25:07;;;;;;;218.93;107.37;;;27.30;97.10;;;;;;6156195;23;20388;-72
2021/08/12 11:27:45;;;;;;;236.87;126.80;;;27.30;97.30;;;;;;6154768;23;20718;-72
2021/08/12 11:30:48;;;;;;;7.72;6.93;;;27.30;97.30;;;;;;6165367;23;20484;-72
2021/08/12 11:33:47;;;;;;;229.80;129.60;;;27.40;96.70;;;;;;6165919;23;20237;-72
2021/08/12 11:36:18;;;;;;;9.00;8.10;;;27.40;96.80;;;;;;6153293;23;20441;-72
2021/08/12 11:38:52;;;;;;;204.30;123.43;;;27.60;96.00;;;;;;6166084;23;20208;-72
2021/08/12 11:41:22;;;;;;;217.37;104.90;;;27.60;96.20;;;;;;6175904;23;20804;-72
2021/08/12 11:43:52;;;;;;;257.07;117.37;;;27.60;96.30;;;;;;6160781;23;20496;-72
2021/08/12 11:46:21;;;;;;;204.00;102.80;;;27.60;96.40;;;;;;6159310;23;20451;-72
2021/08/12 11:48:51;;;;;;;204.90;111.33;;;27.60;96.40;;;;;;6159433;23;20411;-72
2021/08/12 11:51:20;;;;;;;173.73;91.65;;;27.70;96.50;;;;;;6195562;23;20395;-72
2021/08/12 11:53:50;;;;;;;232.17;131.67;;;27.60;96.40;;;;;;6195604;23;20252;-72
2021/08/12 11:56:21;;;;;;;184.23;94.37;;;27.60;96.40;;;;;;6196314;23;20879;-72
2021/08/12 11:58:51;;;;;;;9.95;9.05;;;27.50;96.30;;;;;;6194609;23;20395;-72
2021/08/12 12:01:21;;;;;;;243.93;139.97;;;27.60;95.60;;;;;;6158917;23;20239;-72
2021/08/12 12:03:57;;;;;;;165.57;83.20;;;27.50;95.70;;;;;;6159294;23;20415;-72
2021/08/12 12:06:35;;;;;;;251.23;133.30;;;27.50;95.70;;;;;;6195517;23;20387;-72
2021/08/12 12:09:23;;;;;;;258.10;145.57;;;27.50;95.90;;;;;;6195965;23;20758;-72
2021/08/12 12:11:57;;;;;;;160.20;70.87;;;27.50;95.80;;;;;;6196012;23;20420;-72
2021/08/12 12:14:27;;;;;;;178.33;92.73;;;27.60;96.00;;;;;;6159224;23;20408;-72
2021/08/12 12:17:13;;;;;;;219.40;87.50;;;27.60;96.30;;;;;;6159139;23;20887;-72
2021/08/12 12:20:12;;;;;;;204.13;97.60;;;27.70;96.00;;;;;;6161293;23;20739;-72
2021/08/12 12:22:42;;;;;;;320.90;141.13;;;27.70;96.00;;;;;;6197663;23;20439;-72
2021/08/12 12:25:12;;;;;;;291.73;136.67;;;27.80;96.10;;;;;;6161151;23;20434;-72
2021/08/12 12:27:46;;;;;;;204.43;95.30;;;27.80;96.10;;;;;;6161181;23;20450;-72
2021/08/12 12:30:17;;;;;;;234.63;99.50;;;27.80;96.00;;;;;;6161125;23;20443;-72
2021/08/12 12:32:57;;;;;;;180.37;99.70;;;27.90;95.80;;;;;;6160984;23;20435;-72
2021/08/12 12:35:28;;;;;;;222.23;106.73;;;27.90;95.60;;;;;;6161185;23;20462;-72
2021/08/12 12:37:58;;;;;;;74.28;37.35;;;27.90;95.50;;;;;;6197006;23;20398;-72
2021/08/12 12:40:30;;;;;;;281.00;142.87;;;27.90;95.10;;;;;;6197705;23;20165;-72